Time;durP1;ratioP1;P1;durP2;ratioP2;P2;SDS_P1;SDS_P2;PMS_P1;PMS_P2;Temp;Humidity;BMP_temperature;BMP_pressure;BME280_temperature;BME280_humidity;BME280_pressure;Samples;Min_cycle;Max_cycle;Signal;HPM_P1;HPM_P2
2022/06/30 00:01:30;;;;;;;5.72;3.65;;;20.80;72.00;;;;;;4968181;28;20093;-64
2022/06/30 00:03:56;;;;;;;3.90;3.53;;;20.70;72.10;;;;;;4971484;28;20454;-64
2022/06/30 00:06:22;;;;;;;4.13;3.50;;;20.70;72.30;;;;;;4971438;28;20030;-64
2022/06/30 00:08:48;;;;;;;5.07;3.33;;;20.60;72.30;;;;;;4979665;28;20486;-63
2022/06/30 00:11:13;;;;;;;5.35;3.20;;;20.60;73.10;;;;;;4964675;28;20162;-67
2022/06/30 00:13:41;;;;;;;4.43;3.28;;;20.60;72.30;;;;;;4969612;28;20169;-63
2022/06/30 00:16:07;;;;;;;4.88;3.25;;;20.60;72.40;;;;;;4969876;28;20039;-63
2022/06/30 00:18:34;;;;;;;3.72;3.30;;;20.60;72.30;;;;;;4966384;28;20038;-64
2022/06/30 00:21:00;;;;;;;3.78;3.40;;;20.60;72.30;;;;;;4964680;28;20039;-64
2022/06/30 00:23:26;;;;;;;6.47;3.25;;;20.60;72.30;;;;;;4966770;28;20545;-63
2022/06/30 00:25:52;;;;;;;7.60;3.28;;;20.60;72.30;;;;;;4967164;28;20560;-63
2022/06/30 00:28:20;;;;;;;3.65;3.40;;;20.60;72.20;;;;;;4966121;28;20038;-64
2022/06/30 00:30:47;;;;;;;3.97;3.55;;;20.60;72.00;;;;;;4970127;28;20048;-64
2022/06/30 00:33:13;;;;;;;5.40;3.33;;;20.60;71.90;;;;;;4966262;28;20123;-65
2022/06/30 00:35:38;;;;;;;4.35;3.65;;;20.60;71.90;;;;;;4967939;28;21311;-64
2022/06/30 00:38:04;;;;;;;3.67;3.30;;;20.60;71.90;;;;;;4969900;28;20125;-62
2022/06/30 00:40:38;;;;;;;4.22;3.58;;;20.60;72.00;;;;;;4966863;28;20046;-65
2022/06/30 00:43:04;;;;;;;4.03;3.60;;;20.60;72.30;;;;;;4969065;28;20665;-64
2022/06/30 00:45:30;;;;;;;7.90;3.85;;;20.60;71.80;;;;;;4964654;28;20038;-63
2022/06/30 00:47:55;;;;;;;3.85;3.55;;;20.50;71.90;;;;;;4968413;28;20361;-64
2022/06/30 00:50:21;;;;;;;5.55;3.85;;;20.50;72.20;;;;;;4971275;28;20414;-64
2022/06/30 00:52:50;;;;;;;4.88;3.80;;;20.40;72.40;;;;;;4965394;28;20039;-64
2022/06/30 00:55:17;;;;;;;3.90;3.50;;;20.30;72.70;;;;;;4964545;28;20042;-64
2022/06/30 00:57:44;;;;;;;4.18;3.78;;;20.30;72.80;;;;;;4968641;28;20494;-64
2022/06/30 01:00:11;;;;;;;7.65;3.90;;;20.30;73.00;;;;;;4966594;28;20039;-63
2022/06/30 01:02:36;;;;;;;4.18;3.88;;;20.20;73.00;;;;;;4985675;28;20035;-65
2022/06/30 01:05:03;;;;;;;4.10;3.70;;;20.10;73.00;;;;;;4967132;28;20472;-65
2022/06/30 01:07:30;;;;;;;4.28;3.83;;;20.10;73.20;;;;;;4964829;28;21725;-63
2022/06/30 01:12:47;;;;;;;5.20;3.90;;;20.00;73.50;;;;;;4962712;28;20042;-65
2022/06/30 01:15:18;;;;;;;5.15;4.18;;;20.00;73.90;;;;;;4979776;28;20027;-63
2022/06/30 01:17:46;;;;;;;4.65;4.00;;;19.90;74.00;;;;;;4965322;28;20030;-64
2022/06/30 01:20:13;;;;;;;5.07;4.38;;;19.90;74.00;;;;;;4968142;28;20379;-64
2022/06/30 01:22:39;;;;;;;5.60;4.07;;;19.90;74.00;;;;;;4966495;28;21496;-64
2022/06/30 01:25:06;;;;;;;5.90;4.07;;;19.80;74.10;;;;;;4965764;28;20133;-64
2022/06/30 01:27:32;;;;;;;4.40;4.00;;;19.80;74.30;;;;;;4964559;28;20561;-64
2022/06/30 01:29:58;;;;;;;7.35;4.53;;;19.70;74.50;;;;;;4967363;28;20038;-64
2022/06/30 01:32:25;;;;;;;7.65;4.47;;;19.70;74.70;;;;;;4965338;28;20034;-64
2022/06/30 01:34:52;;;;;;;4.38;3.97;;;19.70;74.70;;;;;;4967206;28;20726;-64
2022/06/30 01:37:18;;;;;;;4.22;3.92;;;19.70;74.70;;;;;;4969077;28;20038;-62
2022/06/30 01:39:44;;;;;;;4.50;3.72;;;19.60;74.70;;;;;;4965940;28;20046;-64
2022/06/30 01:42:10;;;;;;;7.15;4.13;;;19.60;74.90;;;;;;4970548;28;20379;-64
2022/06/30 01:44:36;;;;;;;4.65;4.10;;;19.60;75.10;;;;;;4964283;28;20104;-65
2022/06/30 01:47:02;;;;;;;4.30;3.90;;;19.60;75.00;;;;;;4966936;28;20027;-65
2022/06/30 01:49:27;;;;;;;3.97;3.65;;;19.50;74.80;;;;;;4965480;28;20034;-64
2022/06/30 01:51:53;;;;;;;4.15;3.80;;;19.50;74.80;;;;;;4964901;28;20240;-64
2022/06/30 01:54:18;;;;;;;4.55;4.15;;;19.50;75.00;;;;;;4964321;28;20122;-64
2022/06/30 01:56:44;;;;;;;4.47;3.92;;;19.60;74.90;;;;;;4961358;28;20042;-64
2022/06/30 01:59:10;;;;;;;4.47;3.90;;;19.60;74.90;;;;;;4973214;28;20035;-64
2022/06/30 02:01:36;;;;;;;4.32;3.97;;;19.50;74.90;;;;;;4962639;28;20062;-64
2022/06/30 02:06:45;;;;;;;4.90;4.30;;;19.50;74.90;;;;;;4965259;28;20093;-64
2022/06/30 02:09:11;;;;;;;5.32;4.38;;;19.50;74.90;;;;;;4964602;28;20038;-64
2022/06/30 02:11:37;;;;;;;4.10;3.80;;;19.40;74.90;;;;;;4968847;28;20035;-64
2022/06/30 02:14:03;;;;;;;6.80;4.30;;;19.40;75.10;;;;;;4967133;28;20496;-64
2022/06/30 02:16:28;;;;;;;5.45;4.03;;;19.40;75.20;;;;;;4964927;28;20027;-65
2022/06/30 02:18:54;;;;;;;6.03;4.25;;;19.40;75.30;;;;;;4969234;28;20122;-65
2022/06/30 02:21:19;;;;;;;4.97;4.50;;;19.30;75.30;;;;;;4968403;28;20423;-64
2022/06/30 02:23:45;;;;;;;4.72;4.28;;;19.30;75.50;;;;;;4966127;28;20045;-64
2022/06/30 02:26:11;;;;;;;5.85;4.65;;;19.20;75.40;;;;;;4965614;28;20027;-65
2022/06/30 02:28:37;;;;;;;6.60;4.57;;;19.20;75.60;;;;;;4964117;28;22040;-64
2022/06/30 02:31:02;;;;;;;4.43;4.03;;;19.10;75.70;;;;;;4962619;28;20223;-64
2022/06/30 02:33:28;;;;;;;6.25;4.47;;;19.10;75.60;;;;;;4962364;28;20046;-64
2022/06/30 02:35:53;;;;;;;5.10;4.63;;;19.10;75.70;;;;;;4965978;28;20038;-64
2022/06/30 02:38:19;;;;;;;4.60;4.20;;;19.10;75.80;;;;;;4967891;28;20043;-63
2022/06/30 02:40:45;;;;;;;4.97;4.18;;;19.00;76.00;;;;;;4963248;28;20038;-64
2022/06/30 02:43:10;;;;;;;8.05;4.43;;;19.00;76.00;;;;;;4969580;28;20513;-64
2022/06/30 02:45:36;;;;;;;4.65;4.25;;;19.00;76.00;;;;;;4964949;28;20493;-63
2022/06/30 02:48:02;;;;;;;4.38;3.97;;;18.90;76.10;;;;;;4965635;28;20169;-63
2022/06/30 02:50:28;;;;;;;6.18;4.60;;;18.90;76.30;;;;;;4968580;28;20039;-64
2022/06/30 02:52:54;;;;;;;5.05;4.53;;;18.90;76.40;;;;;;4963953;28;22667;-64
2022/06/30 02:55:21;;;;;;;5.43;4.53;;;18.90;76.40;;;;;;4964921;28;20109;-64
2022/06/30 02:57:46;;;;;;;6.68;4.78;;;18.80;76.40;;;;;;4966866;28;20546;-64
2022/06/30 03:00:13;;;;;;;4.78;4.38;;;18.80;76.50;;;;;;4969531;28;20133;-64
2022/06/30 03:02:40;;;;;;;6.30;4.80;;;18.80;76.60;;;;;;4963730;28;20070;-64
2022/06/30 03:05:07;;;;;;;6.28;4.68;;;18.80;76.80;;;;;;4966717;28;20086;-64
2022/06/30 03:07:32;;;;;;;5.05;4.55;;;18.80;76.80;;;;;;4966874;28;20042;-64
2022/06/30 03:09:58;;;;;;;5.32;4.75;;;18.80;76.90;;;;;;4966055;28;20034;-62
2022/06/30 03:12:24;;;;;;;7.57;4.93;;;18.80;76.90;;;;;;4965022;28;20406;-62
2022/06/30 03:14:50;;;;;;;7.03;4.47;;;18.70;77.00;;;;;;4975857;28;20030;-63
2022/06/30 03:17:16;;;;;;;5.10;4.68;;;18.70;77.00;;;;;;4972000;28;20035;-63
2022/06/30 03:19:41;;;;;;;4.35;4.00;;;18.70;77.00;;;;;;4968590;28;20043;-64
2022/06/30 03:22:07;;;;;;;4.50;4.10;;;18.60;77.00;;;;;;4965162;28;20126;-64
2022/06/30 03:24:32;;;;;;;6.88;4.35;;;18.60;77.00;;;;;;4964126;28;20096;-64
2022/06/30 03:26:58;;;;;;;5.72;4.13;;;18.60;77.00;;;;;;4978119;23;20058;-63
2022/06/30 03:29:24;;;;;;;8.93;4.30;;;18.60;77.00;;;;;;4975034;28;20046;-63
2022/06/30 03:31:49;;;;;;;7.40;4.78;;;18.60;76.90;;;;;;4973015;28;20540;-63
2022/06/30 03:34:15;;;;;;;5.05;4.55;;;18.60;77.00;;;;;;4972673;28;20587;-63
2022/06/30 03:36:41;;;;;;;6.35;4.50;;;18.50;77.00;;;;;;4971712;28;20049;-63
2022/06/30 03:39:07;;;;;;;5.43;4.28;;;18.50;77.00;;;;;;4984431;28;20469;-63
2022/06/30 03:41:32;;;;;;;7.07;4.40;;;18.50;76.90;;;;;;4965888;28;20504;-63
2022/06/30 03:43:58;;;;;;;5.97;4.57;;;18.50;77.00;;;;;;4973504;28;20313;-63
2022/06/30 03:46:23;;;;;;;5.68;4.13;;;18.50;77.20;;;;;;4971860;28;20066;-63
2022/06/30 03:48:49;;;;;;;5.97;4.47;;;18.50;77.20;;;;;;4969262;28;20041;-63
2022/06/30 03:51:15;;;;;;;5.03;4.28;;;18.60;77.20;;;;;;4971706;28;20039;-63
2022/06/30 03:53:41;;;;;;;5.03;4.63;;;18.60;77.20;;;;;;4974978;28;20046;-62
2022/06/30 03:56:06;;;;;;;5.45;4.78;;;18.60;77.50;;;;;;4975392;28;20336;-64
2022/06/30 03:58:33;;;;;;;5.30;4.28;;;18.60;77.60;;;;;;4974415;28;20517;-63
2022/06/30 04:00:58;;;;;;;8.10;4.68;;;18.50;77.60;;;;;;4970055;28;20521;-63
2022/06/30 04:03:24;;;;;;;4.97;4.57;;;18.50;77.70;;;;;;4969559;28;20042;-63
2022/06/30 04:05:50;;;;;;;7.90;4.75;;;18.50;77.80;;;;;;4975082;28;20041;-63
2022/06/30 04:08:15;;;;;;;6.15;4.38;;;18.50;77.90;;;;;;4975511;28;20126;-63
2022/06/30 04:10:42;;;;;;;6.72;4.50;;;18.50;78.00;;;;;;4963958;28;20050;-63
2022/06/30 04:13:08;;;;;;;5.47;4.85;;;18.50;78.10;;;;;;4969192;28;20100;-63
2022/06/30 04:15:34;;;;;;;5.63;5.10;;;18.50;78.30;;;;;;4965465;28;20027;-63
2022/06/30 04:17:59;;;;;;;8.23;4.90;;;18.50;78.50;;;;;;4973744;28;20592;-63
2022/06/30 04:20:25;;;;;;;7.07;4.82;;;18.50;78.40;;;;;;4972957;28;20038;-63
2022/06/30 04:22:52;;;;;;;5.85;5.03;;;18.50;78.60;;;;;;4969390;28;20662;-63
2022/06/30 04:25:19;;;;;;;5.20;4.70;;;18.50;78.60;;;;;;4986018;28;20422;-63
2022/06/30 04:27:49;;;;;;;5.13;4.72;;;18.50;78.80;;;;;;4974758;28;20257;-63
2022/06/30 04:32:37;;;;;;;7.50;4.88;;;18.50;78.90;;;;;;4979193;28;20046;-63
2022/06/30 04:33:02;;;;;;;7.47;6.15;;;18.50;78.90;;;;;;4973948;28;20077;-63
2022/06/30 04:35:27;;;;;;;7.03;6.00;;;18.50;78.80;;;;;;4975818;28;20157;-63
2022/06/30 04:37:57;;;;;;;7.72;5.80;;;18.50;78.90;;;;;;4978878;28;20401;-63
2022/06/30 04:43:06;;;;;;;10.25;6.70;;;18.60;79.30;;;;;;4984848;28;20560;-63
2022/06/30 04:45:32;;;;;;;8.05;7.00;;;18.60;79.40;;;;;;4979784;28;20034;-63
2022/06/30 04:47:58;;;;;;;8.73;7.82;;;18.60;79.50;;;;;;4978855;28;20093;-63
2022/06/30 04:50:23;;;;;;;7.72;6.88;;;18.60;79.70;;;;;;4978077;28;20555;-63
2022/06/30 04:52:49;;;;;;;7.47;6.70;;;18.60;79.80;;;;;;4975130;28;20034;-63
2022/06/30 04:55:14;;;;;;;10.48;6.90;;;18.60;79.60;;;;;;4978885;28;20037;-63
2022/06/30 04:57:40;;;;;;;8.68;7.10;;;18.70;79.80;;;;;;4979876;28;20034;-63
2022/06/30 05:00:07;;;;;;;10.25;7.00;;;18.70;80.00;;;;;;4974855;28;20125;-63
2022/06/30 05:02:33;;;;;;;10.95;7.05;;;18.80;80.40;;;;;;4977099;28;20531;-63
2022/06/30 05:04:58;;;;;;;11.05;7.10;;;18.90;80.50;;;;;;4976586;28;20043;-63
2022/06/30 05:07:24;;;;;;;7.53;6.78;;;18.90;80.40;;;;;;4980743;28;20042;-63
2022/06/30 05:09:50;;;;;;;11.18;6.95;;;19.00;80.40;;;;;;4981728;28;20042;-64
2022/06/30 05:12:15;;;;;;;8.38;7.60;;;19.10;80.50;;;;;;4976851;28;20576;-63
2022/06/30 05:14:41;;;;;;;9.38;7.82;;;19.10;80.50;;;;;;4975046;28;20049;-63
2022/06/30 05:17:07;;;;;;;8.90;7.18;;;19.20;80.50;;;;;;4978212;28;20041;-64
2022/06/30 05:19:32;;;;;;;10.52;6.90;;;19.20;80.30;;;;;;4979438;28;20030;-63
2022/06/30 05:21:59;;;;;;;10.68;7.07;;;19.30;80.30;;;;;;4976526;28;20172;-64
2022/06/30 05:27:09;;;;;;;11.90;7.07;;;19.50;80.50;;;;;;4977462;28;20129;-64
2022/06/30 05:29:35;;;;;;;8.55;7.22;;;19.50;80.30;;;;;;4979817;28;20765;-63
2022/06/30 05:32:00;;;;;;;9.50;7.28;;;19.60;80.30;;;;;;4973813;28;20031;-63
2022/06/30 05:34:26;;;;;;;10.32;7.55;;;19.70;80.60;;;;;;4972125;28;20027;-63
2022/06/30 05:36:52;;;;;;;11.23;7.85;;;19.80;80.50;;;;;;4977076;28;20449;-63
2022/06/30 05:39:17;;;;;;;8.52;7.50;;;19.80;80.30;;;;;;4970186;28;20482;-63
2022/06/30 05:41:43;;;;;;;7.55;6.75;;;20.00;80.30;;;;;;4962391;28;20463;-63
2022/06/30 05:44:09;;;;;;;7.50;6.68;;;20.00;80.20;;;;;;4954337;28;20039;-63
2022/06/30 05:46:36;;;;;;;10.55;7.75;;;20.10;79.90;;;;;;4956084;28;20031;-64
2022/06/30 05:49:02;;;;;;;8.88;7.43;;;20.20;80.20;;;;;;4965318;28;20251;-63
2022/06/30 05:51:28;;;;;;;13.43;7.97;;;20.30;80.30;;;;;;4981851;28;20034;-63
2022/06/30 05:53:54;;;;;;;11.02;8.27;;;20.40;80.70;;;;;;4974616;28;20041;-63
2022/06/30 05:56:20;;;;;;;9.95;7.80;;;20.50;80.80;;;;;;4982866;28;20038;-64
2022/06/30 05:58:46;;;;;;;11.02;7.28;;;20.60;80.90;;;;;;4979941;28;20144;-63
2022/06/30 06:01:11;;;;;;;10.93;7.47;;;20.70;80.90;;;;;;4978243;28;20042;-64
2022/06/30 06:03:37;;;;;;;10.45;7.82;;;20.70;81.00;;;;;;4975639;28;20091;-63
2022/06/30 06:06:03;;;;;;;9.75;7.35;;;20.80;81.20;;;;;;4976966;28;20034;-63
2022/06/30 06:08:29;;;;;;;12.77;8.38;;;20.80;80.80;;;;;;4977822;28;20030;-64
2022/06/30 06:10:55;;;;;;;9.30;8.30;;;20.90;80.50;;;;;;4975271;28;20621;-63
2022/06/30 06:13:21;;;;;;;8.50;7.60;;;21.00;80.50;;;;;;4971749;28;20068;-63
2022/06/30 06:15:47;;;;;;;8.38;7.57;;;21.10;80.50;;;;;;4973806;28;20118;-64
2022/06/30 06:18:14;;;;;;;8.55;7.38;;;21.20;80.10;;;;;;4969595;28;20030;-64
2022/06/30 06:20:42;;;;;;;9.07;7.60;;;21.20;80.00;;;;;;4977594;28;20117;-64
2022/06/30 06:23:08;;;;;;;10.63;7.82;;;21.30;79.90;;;;;;4977074;28;20042;-64
2022/06/30 06:25:33;;;;;;;9.65;8.10;;;21.40;79.80;;;;;;4979039;28;20081;-63
2022/06/30 06:30:43;;;;;;;8.53;7.77;;;21.50;79.20;;;;;;4978015;28;20220;-64
2022/06/30 06:33:10;;;;;;;8.35;7.65;;;21.60;79.10;;;;;;4978246;28;20030;-64
2022/06/30 06:35:35;;;;;;;8.75;7.95;;;21.70;79.10;;;;;;4983930;28;20035;-63
2022/06/30 06:38:01;;;;;;;8.90;8.00;;;21.80;79.20;;;;;;4982789;28;20034;-64
2022/06/30 06:40:28;;;;;;;10.02;7.88;;;21.70;78.70;;;;;;4983346;28;20043;-64
2022/06/30 06:42:53;;;;;;;11.60;7.78;;;21.90;78.90;;;;;;4976297;28;20044;-64
2022/06/30 06:45:19;;;;;;;8.02;7.32;;;22.00;78.20;;;;;;4973501;28;20034;-64
2022/06/30 06:47:45;;;;;;;9.05;8.05;;;22.10;78.20;;;;;;4977252;28;20169;-64
2022/06/30 06:50:11;;;;;;;8.38;7.55;;;22.20;78.00;;;;;;4973602;28;20057;-63
2022/06/30 06:52:37;;;;;;;11.23;7.90;;;22.20;77.50;;;;;;4970826;28;20117;-63
2022/06/30 06:55:03;;;;;;;8.65;7.82;;;22.30;77.60;;;;;;4975752;28;20054;-64
2022/06/30 06:57:37;;;;;;;7.95;7.18;;;22.40;77.30;;;;;;4982163;28;20110;-64
2022/06/30 07:00:07;;;;;;;7.65;6.78;;;22.50;77.20;;;;;;4974328;28;20038;-63
2022/06/30 07:02:33;;;;;;;9.90;6.85;;;22.60;77.00;;;;;;4974352;28;20093;-63
2022/06/30 07:04:59;;;;;;;8.48;7.45;;;22.70;76.80;;;;;;4973744;28;20142;-63
2022/06/30 07:07:24;;;;;;;7.65;7.03;;;22.70;76.40;;;;;;4975352;28;20042;-63
2022/06/30 07:09:50;;;;;;;7.95;7.15;;;22.80;76.30;;;;;;4974484;28;20350;-64
2022/06/30 07:12:16;;;;;;;10.00;7.22;;;22.90;76.00;;;;;;4973189;28;20113;-64
2022/06/30 07:14:41;;;;;;;8.02;7.22;;;23.00;76.00;;;;;;4976514;28;20397;-63
2022/06/30 07:17:07;;;;;;;10.25;7.00;;;23.00;75.90;;;;;;4972655;28;20031;-63
2022/06/30 07:19:33;;;;;;;8.57;7.13;;;23.10;76.70;;;;;;4974002;28;20042;-64
2022/06/30 07:21:58;;;;;;;8.25;7.38;;;23.20;75.40;;;;;;4975992;28;20042;-63
2022/06/30 07:24:24;;;;;;;7.55;6.85;;;23.30;75.30;;;;;;4977158;28;20758;-64
2022/06/30 07:26:49;;;;;;;11.27;6.97;;;23.30;75.40;;;;;;4973442;28;20042;-64
2022/06/30 07:29:16;;;;;;;11.98;7.32;;;23.40;75.40;;;;;;4978847;28;20129;-64
2022/06/30 07:31:42;;;;;;;8.02;6.55;;;23.50;74.70;;;;;;4976668;28;20092;-63
2022/06/30 07:34:08;;;;;;;8.27;7.03;;;23.60;74.70;;;;;;4971483;28;20030;-63
2022/06/30 07:36:35;;;;;;;7.18;6.47;;;23.70;74.20;;;;;;4972801;28;20113;-64
2022/06/30 07:39:01;;;;;;;9.05;7.43;;;23.80;74.40;;;;;;4974699;28;20035;-63
2022/06/30 07:41:28;;;;;;;7.03;6.32;;;23.90;74.30;;;;;;4978798;28;20035;-64
2022/06/30 07:43:54;;;;;;;7.78;6.93;;;24.00;74.60;;;;;;4977089;28;20038;-64
2022/06/30 07:46:20;;;;;;;9.90;6.53;;;24.10;74.20;;;;;;4978285;28;20034;-63
2022/06/30 07:48:47;;;;;;;6.75;5.80;;;24.20;73.90;;;;;;4973154;28;20038;-64
2022/06/30 07:51:14;;;;;;;6.95;4.88;;;24.30;73.50;;;;;;4968880;28;20048;-64
2022/06/30 07:53:40;;;;;;;6.05;5.45;;;24.40;73.50;;;;;;4974308;28;20031;-63
2022/06/30 07:56:06;;;;;;;5.35;4.82;;;24.60;72.80;;;;;;4975371;28;20045;-64
2022/06/30 07:58:33;;;;;;;5.93;4.50;;;24.70;72.40;;;;;;4973050;28;20126;-64
2022/06/30 08:00:59;;;;;;;7.22;4.53;;;24.80;72.00;;;;;;4977881;28;20894;-64
2022/06/30 08:03:25;;;;;;;6.50;4.68;;;24.90;71.80;;;;;;4967514;28;20093;-63
2022/06/30 08:05:51;;;;;;;6.43;4.63;;;25.00;71.50;;;;;;4976833;28;20046;-63
2022/06/30 08:08:17;;;;;;;6.88;4.75;;;25.10;71.30;;;;;;4977705;28;20453;-63
2022/06/30 08:10:42;;;;;;;7.18;4.95;;;25.30;70.80;;;;;;4969868;28;20042;-63
2022/06/30 08:13:08;;;;;;;6.68;5.13;;;25.40;70.20;;;;;;4975280;28;20438;-63
2022/06/30 08:15:34;;;;;;;6.47;5.47;;;25.50;69.80;;;;;;4976505;28;20524;-64
2022/06/30 08:18:04;;;;;;;6.05;4.97;;;25.60;69.60;;;;;;4980862;28;20173;-64
2022/06/30 08:20:30;;;;;;;5.85;4.55;;;25.70;68.30;;;;;;4977220;28;20038;-63
2022/06/30 08:22:56;;;;;;;7.43;4.60;;;25.90;68.80;;;;;;4975387;28;20457;-64
2022/06/30 08:25:21;;;;;;;6.20;4.57;;;26.00;68.40;;;;;;4979509;28;20043;-63
2022/06/30 08:27:47;;;;;;;6.28;4.20;;;26.10;68.50;;;;;;4980982;28;20034;-63
2022/06/30 08:30:13;;;;;;;5.10;4.45;;;26.20;67.00;;;;;;4981904;28;20161;-64
2022/06/30 08:32:40;;;;;;;5.72;4.60;;;26.30;66.80;;;;;;4980661;28;20329;-64
2022/06/30 08:35:06;;;;;;;5.47;4.50;;;26.40;66.60;;;;;;4978476;28;20473;-64
2022/06/30 08:37:31;;;;;;;5.55;4.40;;;26.50;66.10;;;;;;4975161;28;20042;-64
2022/06/30 08:42:41;;;;;;;5.88;5.20;;;26.70;65.60;;;;;;4978394;28;20275;-64
2022/06/30 08:45:14;;;;;;;5.47;4.82;;;26.90;65.50;;;;;;4976707;28;20337;-64
2022/06/30 08:47:45;;;;;;;5.38;4.10;;;27.00;65.00;;;;;;4984646;28;20038;-64
2022/06/30 08:50:13;;;;;;;4.60;3.80;;;27.00;64.70;;;;;;4977729;28;20043;-64
2022/06/30 08:52:53;;;;;;;6.82;4.25;;;27.10;65.20;;;;;;4976881;28;20116;-64
2022/06/30 08:55:31;;;;;;;6.53;3.75;;;27.30;63.20;;;;;;4979154;28;20022;-64
2022/06/30 08:58:07;;;;;;;4.15;3.80;;;27.40;62.80;;;;;;4979343;28;20754;-64
2022/06/30 09:00:35;;;;;;;6.22;3.50;;;27.50;61.00;;;;;;4980875;28;20053;-64
2022/06/30 09:03:02;;;;;;;6.32;4.22;;;27.70;62.00;;;;;;4984249;28;20133;-64
2022/06/30 09:05:28;;;;;;;4.85;4.07;;;27.70;61.10;;;;;;4978950;28;20038;-64
2022/06/30 09:07:54;;;;;;;4.60;4.15;;;27.80;60.50;;;;;;4979892;28;20599;-64
2022/06/30 09:10:22;;;;;;;4.85;3.65;;;27.90;60.60;;;;;;4976912;28;20038;-64
2022/06/30 09:13:03;;;;;;;5.22;3.58;;;28.00;60.60;;;;;;4972561;28;20034;-64
2022/06/30 09:15:37;;;;;;;5.13;3.65;;;28.00;59.30;;;;;;4978175;28;20572;-64
2022/06/30 09:18:03;;;;;;;5.97;3.58;;;28.10;59.80;;;;;;4982408;28;20041;-64
2022/06/30 09:20:47;;;;;;;6.50;3.40;;;28.20;60.40;;;;;;4978411;28;20665;-64
2022/06/30 09:23:21;;;;;;;6.28;3.67;;;28.40;59.10;;;;;;4975654;28;20038;-64
2022/06/30 09:25:49;;;;;;;5.05;3.22;;;28.40;57.80;;;;;;4976180;28;20078;-64
2022/06/30 09:28:16;;;;;;;6.78;3.25;;;28.50;59.30;;;;;;4977351;28;20120;-64
2022/06/30 09:30:42;;;;;;;7.43;3.50;;;28.60;58.90;;;;;;4979832;28;20039;-64
2022/06/30 09:33:09;;;;;;;4.05;3.00;;;28.70;58.70;;;;;;4980115;28;20049;-64
2022/06/30 09:35:38;;;;;;;3.67;2.83;;;28.80;58.00;;;;;;4977216;28;20529;-64
2022/06/30 09:38:10;;;;;;;23.98;3.75;;;28.80;58.00;;;;;;4977867;28;21605;-64
2022/06/30 09:43:33;;;;;;;4.93;2.88;;;29.10;56.90;;;;;;4976092;28;20476;-64
2022/06/30 09:45:59;;;;;;;3.30;2.05;;;29.10;56.10;;;;;;4979182;28;20335;-64
2022/06/30 09:48:28;;;;;;;3.47;2.47;;;29.20;57.10;;;;;;4976752;28;20160;-64
2022/06/30 09:50:58;;;;;;;4.20;2.50;;;29.30;56.40;;;;;;4968975;28;20050;-64
2022/06/30 09:53:24;;;;;;;6.57;2.70;;;29.40;55.50;;;;;;4976845;28;20050;-64
2022/06/30 09:55:49;;;;;;;2.85;2.60;;;29.50;56.00;;;;;;4974397;28;20048;-64
2022/06/30 09:58:25;;;;;;;2.95;2.40;;;29.60;55.70;;;;;;4979595;28;20132;-64
2022/06/30 10:00:51;;;;;;;4.25;2.58;;;29.60;55.60;;;;;;4978786;28;20536;-64
2022/06/30 10:03:19;;;;;;;4.75;2.65;;;29.70;55.10;;;;;;4979619;28;20042;-64
2022/06/30 10:05:49;;;;;;;3.40;1.98;;;29.80;54.70;;;;;;4980965;28;20057;-64
2022/06/30 10:08:17;;;;;;;4.47;2.10;;;29.90;54.10;;;;;;4978964;28;20588;-64
2022/06/30 10:10:44;;;;;;;2.83;1.85;;;30.00;53.60;;;;;;4974929;28;20049;-63
2022/06/30 10:13:18;;;;;;;2.70;2.03;;;30.00;53.50;;;;;;4985612;28;20038;-64
2022/06/30 10:16:04;;;;;;;3.97;2.13;;;30.10;52.30;;;;;;4976916;28;20100;-64
2022/06/30 10:18:32;;;;;;;3.53;2.45;;;30.20;52.40;;;;;;4978800;28;20026;-63
2022/06/30 10:20:58;;;;;;;2.60;2.35;;;30.20;52.90;;;;;;4981585;28;20058;-63
2022/06/30 10:23:24;;;;;;;3.90;2.50;;;30.30;52.90;;;;;;4973114;28;20125;-63
2022/06/30 10:25:51;;;;;;;4.13;2.10;;;30.40;52.50;;;;;;4977381;28;20045;-63
2022/06/30 10:28:19;;;;;;;2.83;2.33;;;30.40;52.30;;;;;;4976973;28;20042;-63
2022/06/30 10:30:55;;;;;;;3.58;2.20;;;30.40;52.20;;;;;;4978436;28;20069;-63
2022/06/30 10:33:52;;;;;;;4.93;1.98;;;30.40;52.20;;;;;;4978914;28;20034;-63
2022/06/30 10:36:37;;;;;;;3.10;2.00;;;30.50;52.30;;;;;;4977690;28;20045;-63
2022/06/30 10:39:06;;;;;;;2.20;2.00;;;30.50;52.00;;;;;;4977562;28;20069;-63
2022/06/30 10:41:42;;;;;;;2.92;2.30;;;30.60;52.30;;;;;;4978258;28;20034;-63
2022/06/30 10:44:08;;;;;;;2.50;2.10;;;30.60;51.80;;;;;;4977951;28;20794;-63
2022/06/30 10:46:34;;;;;;;2.25;2.05;;;30.60;52.00;;;;;;4980417;28;20034;-64
2022/06/30 10:49:07;;;;;;;2.45;2.03;;;30.60;51.90;;;;;;4976780;28;20259;-63
2022/06/30 10:51:33;;;;;;;2.42;2.00;;;30.70;50.60;;;;;;4978477;28;20125;-64
2022/06/30 10:53:59;;;;;;;2.83;2.28;;;30.70;52.10;;;;;;4975826;28;20471;-63
2022/06/30 10:56:51;;;;;;;3.83;1.80;;;30.70;51.10;;;;;;4973989;28;21130;-63
2022/06/30 10:59:29;;;;;;;1.83;1.70;;;30.80;50.60;;;;;;4973106;28;20042;-64
2022/06/30 11:02:14;;;;;;;3.22;1.88;;;30.90;50.70;;;;;;4980315;28;20060;-63
2022/06/30 11:04:45;;;;;;;4.18;1.80;;;30.90;50.60;;;;;;4979542;28;20148;-64
2022/06/30 11:07:21;;;;;;;2.30;1.70;;;31.00;50.90;;;;;;4977188;28;20046;-64
2022/06/30 11:09:47;;;;;;;3.95;1.80;;;31.10;49.60;;;;;;4980731;28;20038;-64
2022/06/30 11:12:44;;;;;;;1.90;1.80;;;31.20;50.40;;;;;;4972978;28;20034;-63
2022/06/30 11:15:10;;;;;;;2.60;1.75;;;31.20;49.60;;;;;;4986122;28;20061;-63
2022/06/30 11:17:39;;;;;;;2.22;1.85;;;31.20;49.90;;;;;;4991471;28;20041;-64
2022/06/30 11:20:12;;;;;;;1.98;1.60;;;31.30;49.80;;;;;;4983516;28;20381;-64
2022/06/30 11:22:39;;;;;;;3.22;1.90;;;31.30;49.20;;;;;;4981181;28;20747;-63
2022/06/30 11:25:06;;;;;;;3.78;2.00;;;31.30;49.80;;;;;;4987562;28;20592;-63
2022/06/30 11:27:33;;;;;;;2.67;1.50;;;31.40;50.40;;;;;;4987089;28;20042;-63
2022/06/30 11:30:05;;;;;;;3.78;1.63;;;31.40;49.40;;;;;;4989389;28;20460;-63
2022/06/30 11:32:30;;;;;;;4.93;1.83;;;31.40;49.50;;;;;;4980966;28;20194;-64
2022/06/30 11:34:57;;;;;;;2.65;1.60;;;31.50;49.00;;;;;;4988404;28;20121;-63
2022/06/30 11:37:27;;;;;;;2.67;1.50;;;31.50;48.80;;;;;;4977379;28;20465;-63
2022/06/30 11:40:00;;;;;;;2.30;1.65;;;31.50;48.30;;;;;;4960722;28;20069;-63
2022/06/30 11:42:26;;;;;;;1.60;1.40;;;31.50;48.20;;;;;;4976215;28;20037;-64
2022/06/30 11:44:52;;;;;;;2.28;1.70;;;31.50;49.20;;;;;;4985123;28;20122;-63
2022/06/30 11:47:18;;;;;;;2.70;1.65;;;31.50;48.70;;;;;;4964345;28;20117;-63
2022/06/30 11:49:51;;;;;;;2.55;1.80;;;31.50;48.10;;;;;;4960627;28;20039;-63
2022/06/30 11:52:29;;;;;;;3.83;1.50;;;31.50;47.60;;;;;;4959727;28;20490;-63
2022/06/30 11:55:09;;;;;;;2.17;1.45;;;31.50;47.80;;;;;;4960657;28;20498;-63
2022/06/30 11:57:40;;;;;;;2.38;1.80;;;31.50;48.20;;;;;;4959368;28;20031;-63
2022/06/30 12:00:06;;;;;;;3.15;1.83;;;31.50;48.20;;;;;;4956819;28;20026;-63
2022/06/30 12:02:33;;;;;;;3.65;1.70;;;31.50;47.70;;;;;;4962193;28;20623;-63
2022/06/30 12:05:01;;;;;;;3.05;1.75;;;31.50;48.00;;;;;;4963654;28;20043;-63
2022/06/30 12:07:28;;;;;;;3.60;1.60;;;31.50;47.90;;;;;;4964602;28;20109;-63
2022/06/30 12:09:56;;;;;;;2.90;1.70;;;31.50;48.00;;;;;;4964317;28;20228;-63
2022/06/30 12:12:27;;;;;;;1.83;1.58;;;31.50;47.90;;;;;;4972740;28;20348;-63
2022/06/30 12:15:00;;;;;;;3.08;1.60;;;31.50;48.00;;;;;;4963623;28;20326;-63
2022/06/30 12:17:35;;;;;;;3.55;1.90;;;31.50;47.60;;;;;;4982925;28;20109;-63
2022/06/30 12:20:02;;;;;;;2.45;1.90;;;31.50;48.00;;;;;;4979068;28;20046;-63
2022/06/30 12:22:28;;;;;;;2.65;1.80;;;31.60;48.30;;;;;;4980130;28;20034;-63
2022/06/30 12:24:54;;;;;;;2.20;1.70;;;31.60;48.20;;;;;;4981506;28;20072;-63
2022/06/30 12:27:30;;;;;;;2.22;1.90;;;31.60;47.60;;;;;;4979214;28;20494;-63
2022/06/30 12:30:06;;;;;;;5.28;1.90;;;31.60;47.60;;;;;;4980329;28;20133;-63
2022/06/30 12:32:32;;;;;;;3.08;1.55;;;31.60;48.00;;;;;;4979658;28;20050;-63
2022/06/30 12:35:01;;;;;;;2.53;1.65;;;31.70;48.00;;;;;;4981294;28;20417;-63
2022/06/30 12:37:33;;;;;;;3.40;1.67;;;31.70;47.70;;;;;;4984554;28;20062;-63
2022/06/30 12:40:01;;;;;;;3.90;1.67;;;31.70;47.00;;;;;;4982716;28;20042;-63
2022/06/30 12:42:45;;;;;;;6.18;1.95;;;31.80;47.20;;;;;;4976417;28;20983;-63
2022/06/30 12:45:36;;;;;;;4.75;1.63;;;31.90;45.20;;;;;;4982780;28;20030;-63
2022/06/30 12:48:03;;;;;;;2.33;1.63;;;31.90;46.30;;;;;;4979957;28;20072;-63
2022/06/30 12:50:37;;;;;;;2.50;1.80;;;31.80;46.90;;;;;;4977651;28;20073;-63
2022/06/30 12:53:35;;;;;;;1.75;1.65;;;31.80;46.50;;;;;;4956663;28;20058;-63
2022/06/30 12:56:08;;;;;;;2.35;1.77;;;31.70;45.10;;;;;;4952821;28;20504;-63
2022/06/30 12:58:59;;;;;;;3.53;1.90;;;31.70;45.80;;;;;;4976544;28;20034;-63
2022/06/30 13:01:29;;;;;;;4.47;1.80;;;31.60;46.30;;;;;;4976657;28;20543;-63
2022/06/30 13:04:07;;;;;;;1.70;1.60;;;31.50;46.00;;;;;;4977401;28;20522;-64
2022/06/30 13:06:38;;;;;;;4.60;2.05;;;31.50;47.00;;;;;;4980793;28;20049;-63
2022/06/30 13:09:06;;;;;;;1.85;1.70;;;31.40;47.20;;;;;;4984212;28;20031;-63